createdAt,value
2023-03-12T00:00:27.118Z,-0.83
2023-03-12T00:07:38.740Z,-0.86
2023-03-12T00:10:17.816Z,-0.87
2023-03-12T00:12:49.960Z,-0.89
2023-03-12T00:15:29.491Z,-0.93
2023-03-12T00:18:01.924Z,-0.95
2023-03-12T00:24:55.050Z,-1.02
2023-03-12T00:28:28.338Z,-1.04
2023-03-12T00:44:50.372Z,-1.21
2023-03-12T00:47:56.621Z,-1.23
2023-03-12T00:50:38.071Z,-1.23
2023-03-12T00:53:55.990Z,-1.22
2023-03-12T00:56:56.769Z,-1.21
2023-03-12T00:59:29.049Z,-1.19
2023-03-12T01:02:08.043Z,-1.17
2023-03-12T01:04:40.450Z,-1.12
2023-03-12T01:11:44.985Z,-1.14
2023-03-12T01:14:24.340Z,-1.16
2023-03-12T01:16:56.566Z,-1.17
2023-03-12T01:19:34.854Z,-1.16
2023-03-12T01:26:54.933Z,-1.19
2023-03-12T01:29:33.861Z,-1.21
2023-03-12T01:32:06.925Z,-1.26
2023-03-12T01:34:48.502Z,-1.30
2023-03-12T01:42:02.096Z,-1.32
2023-03-12T01:44:58.468Z,-1.31
2023-03-12T01:48:19.220Z,-1.32
2023-03-12T01:51:47.131Z,-1.34
2023-03-12T02:03:11.716Z,-1.45
2023-03-12T02:10:38.712Z,-1.51
2023-03-12T02:13:12.420Z,-1.53
2023-03-12T02:20:45.804Z,-1.57
2023-03-12T02:27:27.970Z,-1.67
2023-03-12T02:34:31.925Z,-1.76
2023-03-12T02:37:04.138Z,-1.79
2023-03-12T02:47:50.980Z,-1.92
2023-03-12T02:50:30.146Z,-2.01
2023-03-12T02:53:02.282Z,-2.04
2023-03-12T02:58:54.911Z,-2.01
2023-03-12T03:01:28.371Z,-2.06
2023-03-12T03:04:09.414Z,-2.08
2023-03-12T03:07:26.906Z,-2.12
2023-03-12T03:10:07.226Z,-2.13
2023-03-12T03:12:40.673Z,-2.13
2023-03-12T03:15:19.913Z,-2.15
2023-03-12T03:17:52.587Z,-2.15
2023-03-12T03:20:33.781Z,-2.16
2023-03-12T03:23:08.794Z,-2.18
2023-03-12T03:26:32.909Z,-2.20
2023-03-12T03:29:05.523Z,-2.19
2023-03-12T03:31:44.406Z,-2.20
2023-03-12T03:34:16.773Z,-2.21
2023-03-12T03:36:56.073Z,-2.24
2023-03-12T03:39:29.488Z,-2.25
2023-03-12T03:42:08.262Z,-2.25
2023-03-12T03:49:12.913Z,-2.29
2023-03-12T03:51:52.860Z,-2.30
2023-03-12T03:59:13.033Z,-2.34
2023-03-12T04:06:19.020Z,-2.35
2023-03-12T04:08:51.512Z,-2.35
2023-03-12T04:15:56.386Z,-2.32
2023-03-12T04:32:15.576Z,-2.26
2023-03-12T04:34:48.492Z,-2.26
2023-03-12T04:37:24.270Z,-2.25
2023-03-12T04:44:24.166Z,-2.31
2023-03-12T04:47:00.116Z,-2.32
2023-03-12T04:50:26.938Z,-2.33
2023-03-12T04:57:26.304Z,-2.36
2023-03-12T05:01:04.610Z,-2.36
2023-03-12T05:08:10.001Z,-2.29
2023-03-12T05:19:39.007Z,-2.11
2023-03-12T05:26:53.487Z,-1.96
2023-03-12T05:29:55.843Z,-1.90
2023-03-12T05:37:04.274Z,-1.85
2023-03-12T05:44:04.151Z,-1.72
2023-03-12T05:46:36.639Z,-1.66
2023-03-12T05:49:16.158Z,-1.59
2023-03-12T05:52:29.114Z,-1.51
2023-03-12T05:55:10.068Z,-1.46
2023-03-12T05:58:03.008Z,-1.42
2023-03-12T06:00:44.449Z,-1.40
2023-03-12T06:12:29.241Z,-1.24
2023-03-12T06:15:09.846Z,-1.16
2023-03-12T06:23:30.663Z,-0.80
2023-03-12T06:26:10.150Z,-0.71
2023-03-12T06:28:42.821Z,-0.68
2023-03-12T06:31:22.337Z,-0.66
2023-03-12T06:38:28.029Z,0.44
2023-03-12T06:41:09.330Z,1.30
2023-03-12T06:44:24.501Z,2.48
2023-03-12T06:47:48.999Z,3.50
2023-03-12T06:50:21.404Z,3.46
2023-03-12T07:00:35.303Z,2.07
2023-03-12T07:03:05.814Z,1.87
2023-03-12T07:09:45.487Z,1.91
2023-03-12T07:13:14.859Z,2.04
2023-03-12T07:15:50.762Z,2.26
2023-03-12T07:18:19.772Z,2.95
2023-03-12T07:20:55.379Z,4.01
2023-03-12T07:23:24.426Z,5.08
2023-03-12T07:26:01.266Z,6.42
2023-03-12T07:28:30.882Z,6.63
2023-03-12T07:31:06.592Z,6.02
2023-03-12T07:38:09.116Z,4.98
2023-03-12T07:40:44.852Z,4.53
2023-03-12T07:43:14.148Z,4.30
2023-03-12T07:45:50.630Z,3.95
2023-03-12T07:48:20.213Z,3.89
2023-03-12T08:03:51.368Z,10.17
2023-03-12T08:06:30.631Z,10.50
2023-03-12T08:09:06.666Z,11.68
2023-03-12T08:16:11.647Z,13.45
2023-03-12T08:18:49.128Z,12.91
2023-03-12T08:25:51.179Z,11.54
2023-03-12T08:28:26.408Z,10.95
2023-03-12T08:30:58.722Z,10.26
2023-03-12T08:38:00.392Z,8.44
2023-03-12T08:40:32.202Z,8.24
2023-03-12T08:43:08.671Z,7.96
2023-03-12T08:45:37.982Z,7.69
2023-03-12T08:48:13.381Z,7.41
2023-03-12T08:50:42.310Z,7.15
2023-03-12T08:53:18.193Z,7.06
2023-03-12T08:55:47.585Z,7.22
2023-03-12T08:58:24.843Z,7.83
2023-03-12T09:05:29.444Z,9.99
2023-03-12T09:08:06.008Z,12.21
2023-03-12T09:10:35.262Z,14.31
2023-03-12T09:13:10.457Z,15.78
2023-03-12T09:15:39.354Z,17.68
2023-03-12T09:22:42.617Z,20.64
2023-03-12T09:25:18.949Z,21.12
2023-03-12T09:27:48.780Z,21.54
2023-03-12T09:30:26.531Z,22.15
2023-03-12T09:33:10.171Z,23.17
2023-03-12T09:35:45.579Z,23.37
2023-03-12T09:38:15.491Z,22.79
2023-03-12T09:40:51.985Z,23.33
2023-03-12T09:47:38.194Z,22.64
2023-03-12T09:59:03.293Z,18.37
2023-03-12T10:02:02.663Z,17.65
2023-03-12T10:09:07.161Z,15.77
2023-03-12T10:11:54.763Z,15.61
2023-03-12T10:14:38.289Z,15.21
2023-03-12T10:17:29.822Z,14.67
2023-03-12T10:20:16.285Z,14.50
2023-03-12T10:26:35.639Z,15.64
2023-03-12T10:29:12.969Z,15.07
2023-03-12T10:31:56.581Z,14.58
2023-03-12T10:34:32.653Z,14.04
2023-03-12T10:37:06.727Z,13.64
2023-03-12T10:39:35.901Z,13.49
2023-03-12T10:42:15.847Z,13.51
2023-03-12T10:44:46.788Z,14.35
2023-03-12T10:47:28.946Z,14.56
2023-03-12T10:50:14.054Z,14.66
2023-03-12T10:52:47.042Z,14.38
2023-03-12T10:55:23.542Z,14.07
2023-03-12T10:57:55.786Z,14.10
2023-03-12T11:00:27.817Z,14.12
2023-03-12T11:03:00.338Z,13.63
2023-03-12T11:05:32.180Z,12.72
2023-03-12T11:08:02.018Z,12.15
2023-03-12T11:10:42.905Z,12.16
2023-03-12T11:13:28.493Z,12.37
2023-03-12T11:15:59.304Z,11.92
2023-03-12T11:18:33.824Z,11.49
2023-03-12T11:21:28.337Z,11.05
2023-03-12T11:24:10.639Z,11.06
2023-03-12T11:26:48.742Z,11.08
2023-03-12T11:33:38.781Z,10.44
2023-03-12T11:36:27.194Z,10.76
2023-03-12T11:39:01.233Z,11.22
2023-03-12T11:42:02.938Z,10.71
2023-03-12T11:44:44.034Z,10.86
2023-03-12T11:47:31.672Z,10.71
2023-03-12T11:50:14.608Z,11.34
2023-03-12T11:52:57.562Z,13.15
2023-03-12T11:55:43.620Z,14.25
2023-03-12T11:58:39.088Z,14.93
2023-03-12T12:01:12.918Z,14.74
2023-03-12T12:17:14.223Z,13.91
2023-03-12T12:20:26.199Z,14.32
2023-03-12T12:27:33.154Z,12.56
2023-03-12T12:43:35.461Z,13.36
2023-03-12T12:46:22.731Z,13.13
2023-03-12T13:03:24.339Z,14.56
2023-03-12T13:05:56.388Z,13.18
2023-03-12T13:16:42.387Z,15.89
2023-03-12T13:28:20.900Z,16.46
2023-03-12T13:30:51.732Z,15.25
2023-03-12T13:38:30.762Z,11.86
2023-03-12T13:41:01.461Z,11.36
2023-03-12T13:48:37.013Z,10.57
2023-03-12T13:55:40.401Z,9.84
2023-03-12T13:58:20.894Z,9.63
2023-03-12T14:01:41.115Z,9.26
2023-03-12T14:05:06.641Z,9.01
2023-03-12T14:12:14.021Z,8.61
2023-03-12T14:19:20.835Z,8.27
2023-03-12T14:22:35.111Z,8.33
2023-03-12T14:29:57.057Z,8.23
2023-03-12T14:33:01.616Z,8.28
2023-03-12T14:35:41.769Z,8.13
2023-03-12T14:38:50.876Z,7.84
2023-03-12T14:46:12.079Z,7.44
2023-03-12T14:49:16.140Z,7.29
2023-03-12T14:51:52.214Z,7.07
2023-03-12T14:54:24.071Z,7.05
2023-03-12T14:56:59.928Z,7.07
2023-03-12T14:59:31.358Z,7.06
2023-03-12T15:06:53.159Z,6.91
2023-03-12T15:09:58.067Z,6.76
2023-03-12T15:12:36.660Z,6.66
2023-03-12T15:18:55.650Z,6.59
2023-03-12T15:24:43.558Z,6.46
2023-03-12T15:31:46.888Z,6.61
2023-03-12T15:39:46.807Z,6.47
2023-03-12T15:42:21.784Z,6.38
2023-03-12T15:45:41.669Z,6.29
2023-03-12T15:48:32.294Z,6.20
2023-03-12T15:51:04.831Z,6.04
2023-03-12T15:53:37.501Z,5.94
2023-03-12T16:03:24.684Z,5.73
2023-03-12T16:05:59.301Z,5.73
2023-03-12T16:12:27.488Z,5.61
2023-03-12T16:15:07.794Z,5.54
2023-03-12T16:17:49.314Z,5.52
2023-03-12T16:20:22.137Z,5.46
2023-03-12T16:23:14.361Z,5.39
2023-03-12T16:26:13.398Z,5.37
2023-03-12T16:28:46.188Z,5.37
2023-03-12T16:31:19.547Z,5.34
2023-03-12T16:33:59.010Z,5.30
2023-03-12T16:36:31.156Z,5.27
2023-03-12T16:39:09.495Z,5.22
2023-03-12T16:41:42.259Z,5.17
2023-03-12T16:44:22.453Z,5.12
2023-03-12T16:46:54.651Z,5.10
2023-03-12T16:49:26.818Z,5.07
2023-03-12T17:00:58.365Z,4.86
2023-03-12T17:04:02.418Z,4.81
2023-03-12T17:06:34.679Z,4.76
2023-03-12T17:09:10.108Z,4.70
2023-03-12T17:16:11.647Z,4.51
2023-03-12T17:18:44.536Z,4.44
2023-03-12T17:21:25.078Z,4.41
2023-03-12T17:28:29.591Z,4.28
2023-03-12T17:31:09.046Z,4.28
2023-03-12T17:33:43.067Z,4.29
2023-03-12T17:36:21.603Z,4.26
2023-03-12T17:38:53.651Z,4.25
2023-03-12T17:41:35.136Z,4.26
2023-03-12T17:44:52.920Z,4.21
2023-03-12T17:47:33.133Z,4.17
2023-03-12T17:54:37.894Z,4.07
2023-03-12T17:57:16.513Z,4.03
2023-03-12T17:59:49.552Z,4.00
2023-03-12T18:06:53.930Z,3.86
2023-03-12T18:09:32.878Z,3.86
2023-03-12T18:13:06.191Z,3.87
2023-03-12T18:15:44.657Z,3.84
2023-03-12T18:18:16.796Z,3.82
2023-03-12T18:20:56.108Z,3.79
2023-03-12T18:27:28.593Z,3.76
2023-03-12T18:30:00.640Z,3.76
2023-03-12T18:32:39.695Z,3.75
2023-03-12T18:35:12.434Z,3.75
2023-03-12T18:37:52.037Z,3.75
2023-03-12T18:44:56.625Z,3.68
2023-03-12T18:52:19.274Z,3.74
2023-03-12T18:55:24.569Z,3.74
2023-03-12T18:58:04.291Z,3.75
2023-03-12T19:00:36.490Z,3.72
2023-03-12T19:03:15.667Z,3.71
2023-03-12T19:05:48.715Z,3.70
2023-03-12T19:08:27.646Z,3.68
2023-03-12T19:11:00.090Z,3.67
2023-03-12T19:13:39.005Z,3.66
2023-03-12T19:20:01.975Z,3.62
2023-03-12T19:22:34.275Z,3.61
2023-03-12T19:25:12.996Z,3.57
2023-03-12T19:27:45.219Z,3.54
2023-03-12T19:30:27.496Z,3.53
2023-03-12T19:37:38.148Z,3.45
2023-03-12T19:57:54.296Z,3.46
2023-03-12T20:00:33.757Z,3.44
2023-03-12T20:03:06.156Z,3.43
2023-03-12T20:05:46.706Z,3.45
2023-03-12T20:08:21.102Z,3.43
2023-03-12T20:11:43.551Z,3.39
2023-03-12T20:23:45.296Z,3.34
2023-03-12T20:26:20.154Z,3.36
2023-03-12T20:33:22.369Z,3.33
2023-03-12T20:35:56.133Z,3.33
2023-03-12T20:38:35.173Z,3.32
2023-03-12T20:45:40.612Z,3.28
2023-03-12T20:52:02.128Z,3.26
2023-03-12T20:54:41.371Z,3.24
2023-03-12T20:57:14.050Z,3.24
2023-03-12T20:59:53.129Z,3.25
2023-03-12T21:02:25.812Z,3.25
2023-03-12T21:05:25.195Z,3.27
2023-03-12T21:12:40.022Z,3.30
2023-03-12T21:15:19.121Z,3.30
2023-03-12T21:17:51.263Z,3.30
2023-03-12T21:33:10.058Z,3.37
2023-03-12T21:35:49.266Z,3.37
2023-03-12T21:38:21.419Z,3.38
2023-03-12T21:45:26.314Z,3.38
2023-03-12T21:52:02.637Z,3.40
2023-03-12T21:54:36.896Z,3.41
2023-03-12T21:57:16.178Z,3.43
2023-03-12T21:59:48.430Z,3.46
2023-03-12T22:06:52.265Z,3.47
2023-03-12T22:09:27.040Z,3.48
2023-03-12T22:25:38.337Z,3.39
2023-03-12T22:31:47.501Z,3.41
2023-03-12T22:34:48.967Z,3.43
2023-03-12T22:41:17.382Z,3.49
2023-03-12T22:44:35.361Z,3.52
2023-03-12T22:47:28.037Z,3.54
2023-03-12T22:50:00.228Z,3.57
2023-03-12T22:52:36.765Z,3.60
2023-03-12T22:55:16.616Z,3.62
2023-03-12T22:57:48.838Z,3.65
2023-03-12T23:00:28.291Z,3.68
2023-03-12T23:03:00.475Z,3.68
2023-03-12T23:05:39.015Z,3.66
2023-03-12T23:08:11.568Z,3.67
2023-03-12T23:11:15.591Z,3.68
2023-03-12T23:14:34.036Z,3.69
2023-03-12T23:17:49.695Z,3.72
2023-03-12T23:20:27.997Z,3.76
2023-03-12T23:23:00.176Z,3.80
2023-03-12T23:30:05.783Z,3.87
2023-03-12T23:32:44.075Z,3.89
2023-03-12T23:35:16.867Z,3.92
2023-03-12T23:42:21.414Z,3.89
2023-03-12T23:44:53.578Z,3.86
2023-03-12T23:50:42.375Z,3.85
2023-03-12T23:53:14.482Z,3.82
